sensor_id;sensor_type;location;lat;lon;timestamp;P1;durP1;ratioP1;P2;durP2;ratioP2
35418;SDS011;21525;41.240;16.500;2022-09-03T00:02:15;4.72;;;1.67;;
35418;SDS011;21525;41.240;16.500;2022-09-03T00:07:38;8.18;;;2.35;;
35418;SDS011;21525;41.240;16.500;2022-09-03T00:10:44;7.07;;;1.90;;
35418;SDS011;21525;41.240;16.500;2022-09-03T00:13:19;8.52;;;2.13;;
35418;SDS011;21525;41.240;16.500;2022-09-03T00:15:50;6.50;;;2.10;;
35418;SDS011;21525;41.240;16.500;2022-09-03T00:18:20;6.70;;;2.05;;
35418;SDS011;21525;41.240;16.500;2022-09-03T00:20:51;6.13;;;1.73;;
35418;SDS011;21525;41.240;16.500;2022-09-03T00:23:25;4.50;;;2.10;;
35418;SDS011;21525;41.240;16.500;2022-09-03T00:25:59;3.00;;;1.65;;
35418;SDS011;21525;41.240;16.500;2022-09-03T00:34:04;5.30;;;1.80;;
35418;SDS011;21525;41.240;16.500;2022-09-03T00:36:38;4.35;;;1.80;;
35418;SDS011;21525;41.240;16.500;2022-09-03T00:39:17;6.03;;;2.20;;
35418;SDS011;21525;41.240;16.500;2022-09-03T00:42:30;4.45;;;1.52;;
35418;SDS011;21525;41.240;16.500;2022-09-03T00:44:47;4.38;;;2.90;;
35418;SDS011;21525;41.240;16.500;2022-09-03T01:10:30;4.85;;;1.90;;
35418;SDS011;21525;41.240;16.500;2022-09-03T01:13:08;3.13;;;1.70;;
35418;SDS011;21525;41.240;16.500;2022-09-03T01:21:08;6.78;;;2.17;;
35418;SDS011;21525;41.240;16.500;2022-09-03T01:27:13;7.30;;;1.92;;
35418;SDS011;21525;41.240;16.500;2022-09-03T01:30:04;4.20;;;2.00;;
35418;SDS011;21525;41.240;16.500;2022-09-03T01:32:48;3.90;;;2.10;;
35418;SDS011;21525;41.240;16.500;2022-09-03T01:38:33;4.55;;;2.28;;
35418;SDS011;21525;41.240;16.500;2022-09-03T01:47:21;7.40;;;5.05;;
35418;SDS011;21525;41.240;16.500;2022-09-03T01:53:15;3.97;;;3.22;;
35418;SDS011;21525;41.240;16.500;2022-09-03T02:01:34;4.47;;;3.60;;
35418;SDS011;21525;41.240;16.500;2022-09-03T02:04:12;5.43;;;4.00;;
35418;SDS011;21525;41.240;16.500;2022-09-03T02:06:44;8.20;;;6.57;;
35418;SDS011;21525;41.240;16.500;2022-09-03T02:09:12;12.88;;;10.48;;
35418;SDS011;21525;41.240;16.500;2022-09-03T02:11:38;18.50;;;13.60;;
35418;SDS011;21525;41.240;16.500;2022-09-03T02:14:05;24.80;;;19.85;;
35418;SDS011;21525;41.240;16.500;2022-09-03T02:16:32;16.65;;;14.80;;
35418;SDS011;21525;41.240;16.500;2022-09-03T02:19:03;10.23;;;7.37;;
35418;SDS011;21525;41.240;16.500;2022-09-03T02:21:39;9.88;;;7.22;;
35418;SDS011;21525;41.240;16.500;2022-09-03T02:24:10;10.48;;;7.05;;
35418;SDS011;21525;41.240;16.500;2022-09-03T02:26:36;8.60;;;7.40;;
35418;SDS011;21525;41.240;16.500;2022-09-03T02:29:02;16.48;;;12.60;;
35418;SDS011;21525;41.240;16.500;2022-09-03T02:31:29;12.73;;;10.73;;
35418;SDS011;21525;41.240;16.500;2022-09-03T02:33:55;9.25;;;7.82;;
35418;SDS011;21525;41.240;16.500;2022-09-03T02:36:32;7.85;;;5.90;;
35418;SDS011;21525;41.240;16.500;2022-09-03T02:39:04;15.73;;;13.80;;
35418;SDS011;21525;41.240;16.500;2022-09-03T02:41:31;12.10;;;10.18;;
35418;SDS011;21525;41.240;16.500;2022-09-03T02:46:42;6.63;;;5.30;;
35418;SDS011;21525;41.240;16.500;2022-09-03T02:49:12;6.63;;;3.30;;
35418;SDS011;21525;41.240;16.500;2022-09-03T02:51:39;5.30;;;2.90;;
35418;SDS011;21525;41.240;16.500;2022-09-03T02:54:07;5.32;;;2.60;;
35418;SDS011;21525;41.240;16.500;2022-09-03T02:56:33;6.47;;;3.10;;
35418;SDS011;21525;41.240;16.500;2022-09-03T02:58:59;7.40;;;3.33;;
35418;SDS011;21525;41.240;16.500;2022-09-03T03:01:26;6.43;;;3.22;;
35418;SDS011;21525;41.240;16.500;2022-09-03T03:03:52;5.82;;;2.80;;
35418;SDS011;21525;41.240;16.500;2022-09-03T03:06:18;6.00;;;3.15;;
35418;SDS011;21525;41.240;16.500;2022-09-03T03:08:45;4.32;;;3.42;;
35418;SDS011;21525;41.240;16.500;2022-09-03T03:11:12;12.13;;;4.03;;
35418;SDS011;21525;41.240;16.500;2022-09-03T03:13:43;7.15;;;3.05;;
35418;SDS011;21525;41.240;16.500;2022-09-03T03:16:12;11.02;;;3.47;;
35418;SDS011;21525;41.240;16.500;2022-09-03T03:18:39;5.43;;;2.20;;
35418;SDS011;21525;41.240;16.500;2022-09-03T03:21:06;6.00;;;2.50;;
35418;SDS011;21525;41.240;16.500;2022-09-03T03:23:34;5.65;;;2.63;;
35418;SDS011;21525;41.240;16.500;2022-09-03T03:26:02;7.50;;;3.97;;
35418;SDS011;21525;41.240;16.500;2022-09-03T03:28:30;5.20;;;2.83;;
35418;SDS011;21525;41.240;16.500;2022-09-03T03:31:09;4.50;;;2.75;;
35418;SDS011;21525;41.240;16.500;2022-09-03T03:33:37;4.53;;;2.63;;
35418;SDS011;21525;41.240;16.500;2022-09-03T03:36:08;7.18;;;3.15;;
35418;SDS011;21525;41.240;16.500;2022-09-03T03:38:36;4.65;;;2.60;;
35418;SDS011;21525;41.240;16.500;2022-09-03T03:41:10;5.40;;;3.17;;
35418;SDS011;21525;41.240;16.500;2022-09-03T03:43:47;5.82;;;2.95;;
35418;SDS011;21525;41.240;16.500;2022-09-03T03:46:16;4.60;;;3.00;;
35418;SDS011;21525;41.240;16.500;2022-09-03T03:48:42;4.78;;;3.00;;
35418;SDS011;21525;41.240;16.500;2022-09-03T03:51:08;6.43;;;3.72;;
35418;SDS011;21525;41.240;16.500;2022-09-03T03:53:36;6.30;;;3.55;;
35418;SDS011;21525;41.240;16.500;2022-09-03T03:56:04;4.72;;;3.08;;
35418;SDS011;21525;41.240;16.500;2022-09-03T03:58:32;7.45;;;3.22;;
35418;SDS011;21525;41.240;16.500;2022-09-03T04:01:05;6.88;;;2.75;;
35418;SDS011;21525;41.240;16.500;2022-09-03T04:03:33;6.88;;;3.05;;
35418;SDS011;21525;41.240;16.500;2022-09-03T04:06:00;7.93;;;3.25;;
35418;SDS011;21525;41.240;16.500;2022-09-03T04:08:27;9.25;;;3.08;;
35418;SDS011;21525;41.240;16.500;2022-09-03T04:10:53;6.70;;;3.20;;
35418;SDS011;21525;41.240;16.500;2022-09-03T04:13:23;7.38;;;3.33;;
35418;SDS011;21525;41.240;16.500;2022-09-03T04:15:50;9.43;;;3.85;;
35418;SDS011;21525;41.240;16.500;2022-09-03T04:18:15;8.68;;;3.38;;
35418;SDS011;21525;41.240;16.500;2022-09-03T04:20:41;7.28;;;2.90;;
35418;SDS011;21525;41.240;16.500;2022-09-03T04:23:07;7.10;;;2.88;;
35418;SDS011;21525;41.240;16.500;2022-09-03T04:25:33;4.15;;;2.92;;
35418;SDS011;21525;41.240;16.500;2022-09-03T04:27:59;7.55;;;2.60;;
35418;SDS011;21525;41.240;16.500;2022-09-03T04:30:25;6.70;;;2.78;;
35418;SDS011;21525;41.240;16.500;2022-09-03T04:32:52;7.90;;;3.05;;
35418;SDS011;21525;41.240;16.500;2022-09-03T04:35:25;7.18;;;3.10;;
35418;SDS011;21525;41.240;16.500;2022-09-03T04:37:56;5.15;;;2.63;;
35418;SDS011;21525;41.240;16.500;2022-09-03T04:40:22;7.13;;;3.25;;
35418;SDS011;21525;41.240;16.500;2022-09-03T04:42:48;8.23;;;3.00;;
35418;SDS011;21525;41.240;16.500;2022-09-03T04:45:14;7.30;;;2.80;;
35418;SDS011;21525;41.240;16.500;2022-09-03T04:51:42;5.55;;;2.75;;
35418;SDS011;21525;41.240;16.500;2022-09-03T04:54:08;8.10;;;2.88;;
35418;SDS011;21525;41.240;16.500;2022-09-03T04:56:35;7.18;;;2.78;;
35418;SDS011;21525;41.240;16.500;2022-09-03T04:59:04;6.30;;;3.00;;
35418;SDS011;21525;41.240;16.500;2022-09-03T05:01:33;6.78;;;3.88;;
35418;SDS011;21525;41.240;16.500;2022-09-03T05:04:00;12.30;;;5.78;;
35418;SDS011;21525;41.240;16.500;2022-09-03T05:06:27;12.65;;;6.10;;
35418;SDS011;21525;41.240;16.500;2022-09-03T05:08:54;14.82;;;8.07;;
35418;SDS011;21525;41.240;16.500;2022-09-03T05:11:21;12.07;;;7.78;;
35418;SDS011;21525;41.240;16.500;2022-09-03T05:13:48;12.65;;;6.75;;
35418;SDS011;21525;41.240;16.500;2022-09-03T05:16:15;13.43;;;6.97;;
35418;SDS011;21525;41.240;16.500;2022-09-03T05:18:42;17.98;;;7.10;;
35418;SDS011;21525;41.240;16.500;2022-09-03T05:21:10;13.10;;;6.70;;
35418;SDS011;21525;41.240;16.500;2022-09-03T05:23:39;19.05;;;6.82;;
35418;SDS011;21525;41.240;16.500;2022-09-03T05:26:08;18.52;;;7.50;;
35418;SDS011;21525;41.240;16.500;2022-09-03T05:28:37;13.40;;;5.95;;
35418;SDS011;21525;41.240;16.500;2022-09-03T05:33:34;13.87;;;5.80;;
35418;SDS011;21525;41.240;16.500;2022-09-03T05:36:04;11.02;;;4.70;;
35418;SDS011;21525;41.240;16.500;2022-09-03T05:38:32;13.30;;;6.40;;
35418;SDS011;21525;41.240;16.500;2022-09-03T05:41:00;23.08;;;13.98;;
35418;SDS011;21525;41.240;16.500;2022-09-03T05:43:27;17.15;;;5.28;;
35418;SDS011;21525;41.240;16.500;2022-09-03T05:46:12;14.03;;;5.77;;
35418;SDS011;21525;41.240;16.500;2022-09-03T05:48:42;12.20;;;5.75;;
35418;SDS011;21525;41.240;16.500;2022-09-03T05:51:10;14.20;;;4.65;;
35418;SDS011;21525;41.240;16.500;2022-09-03T05:53:41;19.30;;;5.10;;
35418;SDS011;21525;41.240;16.500;2022-09-03T05:56:15;17.08;;;5.30;;
35418;SDS011;21525;41.240;16.500;2022-09-03T05:58:44;17.00;;;4.65;;
35418;SDS011;21525;41.240;16.500;2022-09-03T06:01:18;16.27;;;4.55;;
35418;SDS011;21525;41.240;16.500;2022-09-03T06:03:46;12.35;;;3.80;;
35418;SDS011;21525;41.240;16.500;2022-09-03T06:06:20;16.27;;;4.47;;
35418;SDS011;21525;41.240;16.500;2022-09-03T06:08:57;16.02;;;4.20;;
35418;SDS011;21525;41.240;16.500;2022-09-03T06:11:24;11.43;;;3.00;;
35418;SDS011;21525;41.240;16.500;2022-09-03T06:13:53;10.38;;;3.92;;
35418;SDS011;21525;41.240;16.500;2022-09-03T06:16:23;10.07;;;3.67;;
35418;SDS011;21525;41.240;16.500;2022-09-03T06:18:49;10.80;;;4.00;;
35418;SDS011;21525;41.240;16.500;2022-09-03T06:21:15;9.07;;;3.38;;
35418;SDS011;21525;41.240;16.500;2022-09-03T06:23:41;6.50;;;2.58;;
35418;SDS011;21525;41.240;16.500;2022-09-03T06:26:08;10.38;;;3.72;;
35418;SDS011;21525;41.240;16.500;2022-09-03T06:28:35;9.05;;;3.88;;
35418;SDS011;21525;41.240;16.500;2022-09-03T06:31:03;7.95;;;2.72;;
35418;SDS011;21525;41.240;16.500;2022-09-03T06:33:32;8.70;;;3.80;;
35418;SDS011;21525;41.240;16.500;2022-09-03T06:36:00;6.85;;;3.72;;
35418;SDS011;21525;41.240;16.500;2022-09-03T06:40:57;11.23;;;4.25;;
35418;SDS011;21525;41.240;16.500;2022-09-03T06:43:29;7.63;;;5.05;;
35418;SDS011;21525;41.240;16.500;2022-09-03T06:45:57;11.05;;;3.65;;
35418;SDS011;21525;41.240;16.500;2022-09-03T06:48:25;8.65;;;2.90;;
35418;SDS011;21525;41.240;16.500;2022-09-03T06:51:14;6.38;;;3.30;;
35418;SDS011;21525;41.240;16.500;2022-09-03T06:53:42;6.88;;;3.30;;
35418;SDS011;21525;41.240;16.500;2022-09-03T06:56:11;8.00;;;3.42;;
35418;SDS011;21525;41.240;16.500;2022-09-03T06:58:42;4.25;;;2.80;;
35418;SDS011;21525;41.240;16.500;2022-09-03T07:01:13;7.30;;;3.42;;
35418;SDS011;21525;41.240;16.500;2022-09-03T07:03:44;7.10;;;2.90;;
35418;SDS011;21525;41.240;16.500;2022-09-03T07:06:13;10.60;;;3.05;;
35418;SDS011;21525;41.240;16.500;2022-09-03T07:08:41;7.40;;;3.60;;
35418;SDS011;21525;41.240;16.500;2022-09-03T07:11:08;7.25;;;3.10;;
35418;SDS011;21525;41.240;16.500;2022-09-03T07:13:40;7.70;;;3.40;;
35418;SDS011;21525;41.240;16.500;2022-09-03T07:16:11;9.95;;;3.40;;
35418;SDS011;21525;41.240;16.500;2022-09-03T07:18:38;11.18;;;3.45;;
35418;SDS011;21525;41.240;16.500;2022-09-03T07:21:06;10.18;;;3.90;;
35418;SDS011;21525;41.240;16.500;2022-09-03T07:23:34;8.93;;;3.03;;
35418;SDS011;21525;41.240;16.500;2022-09-03T07:26:02;7.80;;;2.90;;
35418;SDS011;21525;41.240;16.500;2022-09-03T07:28:30;5.55;;;2.75;;
35418;SDS011;21525;41.240;16.500;2022-09-03T07:31:01;8.07;;;3.03;;
35418;SDS011;21525;41.240;16.500;2022-09-03T07:33:32;7.43;;;3.65;;
35418;SDS011;21525;41.240;16.500;2022-09-03T07:36:08;6.55;;;2.92;;
35418;SDS011;21525;41.240;16.500;2022-09-03T07:38:41;4.97;;;2.85;;
35418;SDS011;21525;41.240;16.500;2022-09-03T07:41:12;4.03;;;3.20;;
35418;SDS011;21525;41.240;16.500;2022-09-03T07:43:40;9.25;;;3.25;;
35418;SDS011;21525;41.240;16.500;2022-09-03T07:46:14;7.55;;;3.20;;
35418;SDS011;21525;41.240;16.500;2022-09-03T07:48:52;7.45;;;3.40;;
35418;SDS011;21525;41.240;16.500;2022-09-03T07:51:21;4.50;;;2.88;;
35418;SDS011;21525;41.240;16.500;2022-09-03T07:53:52;5.78;;;2.97;;
35418;SDS011;21525;41.240;16.500;2022-09-03T07:56:20;8.13;;;3.05;;
35418;SDS011;21525;41.240;16.500;2022-09-03T07:58:46;3.83;;;2.42;;
35418;SDS011;21525;41.240;16.500;2022-09-03T08:01:14;4.28;;;2.88;;
35418;SDS011;21525;41.240;16.500;2022-09-03T08:03:42;6.63;;;2.72;;
35418;SDS011;21525;41.240;16.500;2022-09-03T08:06:10;6.97;;;2.95;;
35418;SDS011;21525;41.240;16.500;2022-09-03T08:08:37;5.55;;;2.47;;
35418;SDS011;21525;41.240;16.500;2022-09-03T08:13:44;7.82;;;2.83;;
35418;SDS011;21525;41.240;16.500;2022-09-03T08:16:14;6.63;;;2.92;;
35418;SDS011;21525;41.240;16.500;2022-09-03T08:18:41;10.30;;;4.57;;
35418;SDS011;21525;41.240;16.500;2022-09-03T08:21:11;6.65;;;3.55;;
35418;SDS011;21525;41.240;16.500;2022-09-03T08:23:40;3.97;;;2.30;;
35418;SDS011;21525;41.240;16.500;2022-09-03T08:26:08;6.35;;;2.40;;
35418;SDS011;21525;41.240;16.500;2022-09-03T08:28:34;3.88;;;2.45;;
35418;SDS011;21525;41.240;16.500;2022-09-03T08:31:08;4.22;;;2.83;;
35418;SDS011;21525;41.240;16.500;2022-09-03T08:33:42;8.05;;;4.35;;
35418;SDS011;21525;41.240;16.500;2022-09-03T08:38:42;6.85;;;4.38;;
35418;SDS011;21525;41.240;16.500;2022-09-03T08:41:17;7.03;;;2.60;;
35418;SDS011;21525;41.240;16.500;2022-09-03T08:50:02;7.20;;;3.25;;
35418;SDS011;21525;41.240;16.500;2022-09-03T08:52:06;4.75;;;2.70;;
35418;SDS011;21525;41.240;16.500;2022-09-03T08:54:44;7.05;;;2.70;;
35418;SDS011;21525;41.240;16.500;2022-09-03T08:57:13;8.68;;;3.28;;
35418;SDS011;21525;41.240;16.500;2022-09-03T08:59:43;7.28;;;2.42;;
35418;SDS011;21525;41.240;16.500;2022-09-03T09:10:41;4.25;;;2.67;;
35418;SDS011;21525;41.240;16.500;2022-09-03T09:13:28;4.85;;;2.60;;
35418;SDS011;21525;41.240;16.500;2022-09-03T09:16:21;5.85;;;2.83;;
35418;SDS011;21525;41.240;16.500;2022-09-03T09:22:02;6.57;;;2.70;;
35418;SDS011;21525;41.240;16.500;2022-09-03T09:24:46;6.38;;;2.53;;
35418;SDS011;21525;41.240;16.500;2022-09-03T09:27:15;4.32;;;2.60;;
35418;SDS011;21525;41.240;16.500;2022-09-03T09:29:42;5.70;;;2.40;;
35418;SDS011;21525;41.240;16.500;2022-09-03T09:32:12;6.95;;;2.63;;
35418;SDS011;21525;41.240;16.500;2022-09-03T09:34:41;5.10;;;2.45;;
35418;SDS011;21525;41.240;16.500;2022-09-03T09:37:11;5.97;;;2.63;;
35418;SDS011;21525;41.240;16.500;2022-09-03T09:39:39;4.82;;;2.03;;
35418;SDS011;21525;41.240;16.500;2022-09-03T09:42:20;5.35;;;2.40;;
35418;SDS011;21525;41.240;16.500;2022-09-03T09:44:46;5.68;;;2.58;;
35418;SDS011;21525;41.240;16.500;2022-09-03T09:47:15;5.15;;;3.28;;
35418;SDS011;21525;41.240;16.500;2022-09-03T09:49:56;8.00;;;2.95;;
35418;SDS011;21525;41.240;16.500;2022-09-03T09:52:23;6.25;;;2.40;;
35418;SDS011;21525;41.240;16.500;2022-09-03T09:54:53;4.03;;;2.20;;
35418;SDS011;21525;41.240;16.500;2022-09-03T09:57:33;4.50;;;2.20;;
35418;SDS011;21525;41.240;16.500;2022-09-03T10:00:17;3.20;;;2.10;;
35418;SDS011;21525;41.240;16.500;2022-09-03T10:02:47;6.10;;;2.00;;
35418;SDS011;21525;41.240;16.500;2022-09-03T10:07:59;4.82;;;1.90;;
35418;SDS011;21525;41.240;16.500;2022-09-03T10:10:27;3.72;;;2.10;;
35418;SDS011;21525;41.240;16.500;2022-09-03T10:13:11;3.10;;;2.15;;
35418;SDS011;21525;41.240;16.500;2022-09-03T10:26:56;7.32;;;2.13;;
35418;SDS011;21525;41.240;16.500;2022-09-03T10:29:22;4.95;;;1.77;;
35418;SDS011;21525;41.240;16.500;2022-09-03T10:34:47;5.70;;;1.90;;
35418;SDS011;21525;41.240;16.500;2022-09-03T11:05:01;4.30;;;2.15;;
35418;SDS011;21525;41.240;16.500;2022-09-03T11:07:36;5.25;;;2.28;;
35418;SDS011;21525;41.240;16.500;2022-09-03T11:13:13;3.95;;;1.70;;
35418;SDS011;21525;41.240;16.500;2022-09-03T11:16:19;5.28;;;1.92;;
35418;SDS011;21525;41.240;16.500;2022-09-03T11:21:23;5.72;;;2.00;;
35418;SDS011;21525;41.240;16.500;2022-09-03T11:24:02;2.95;;;1.73;;
35418;SDS011;21525;41.240;16.500;2022-09-03T11:26:38;3.92;;;2.35;;
35418;SDS011;21525;41.240;16.500;2022-09-03T11:29:29;3.80;;;2.30;;
35418;SDS011;21525;41.240;16.500;2022-09-03T11:32:04;3.20;;;1.95;;
35418;SDS011;21525;41.240;16.500;2022-09-03T11:42:33;3.42;;;2.17;;
35418;SDS011;21525;41.240;16.500;2022-09-03T11:47:48;4.07;;;2.00;;
35418;SDS011;21525;41.240;16.500;2022-09-03T11:50:28;3.25;;;1.73;;
35418;SDS011;21525;41.240;16.500;2022-09-03T11:53:10;3.28;;;2.03;;
35418;SDS011;21525;41.240;16.500;2022-09-03T11:58:33;2.50;;;1.70;;
35418;SDS011;21525;41.240;16.500;2022-09-03T12:01:01;3.75;;;1.60;;
35418;SDS011;21525;41.240;16.500;2022-09-03T12:16:50;6.88;;;2.00;;
35418;SDS011;21525;41.240;16.500;2022-09-03T12:19:40;3.58;;;1.80;;
35418;SDS011;21525;41.240;16.500;2022-09-03T12:22:15;2.45;;;1.80;;
35418;SDS011;21525;41.240;16.500;2022-09-03T12:24:42;3.05;;;1.85;;
35418;SDS011;21525;41.240;16.500;2022-09-03T12:27:18;5.65;;;1.98;;
35418;SDS011;21525;41.240;16.500;2022-09-03T12:32:31;3.05;;;1.65;;
35418;SDS011;21525;41.240;16.500;2022-09-03T12:35:16;3.75;;;1.90;;
35418;SDS011;21525;41.240;16.500;2022-09-03T12:37:46;4.20;;;1.90;;
35418;SDS011;21525;41.240;16.500;2022-09-03T12:40:16;3.15;;;1.83;;
35418;SDS011;21525;41.240;16.500;2022-09-03T12:42:50;3.53;;;1.85;;
35418;SDS011;21525;41.240;16.500;2022-09-03T12:45:21;3.45;;;1.85;;
35418;SDS011;21525;41.240;16.500;2022-09-03T12:47:49;4.78;;;1.95;;
35418;SDS011;21525;41.240;16.500;2022-09-03T12:50:22;2.67;;;1.88;;
35418;SDS011;21525;41.240;16.500;2022-09-03T12:53:01;6.10;;;2.10;;
35418;SDS011;21525;41.240;16.500;2022-09-03T12:55:32;3.83;;;2.20;;
35418;SDS011;21525;41.240;16.500;2022-09-03T13:00:44;2.17;;;1.80;;
35418;SDS011;21525;41.240;16.500;2022-09-03T13:03:26;3.65;;;2.03;;
35418;SDS011;21525;41.240;16.500;2022-09-03T13:06:05;3.10;;;1.58;;
35418;SDS011;21525;41.240;16.500;2022-09-03T13:08:43;4.90;;;2.42;;
35418;SDS011;21525;41.240;16.500;2022-09-03T13:11:17;2.75;;;2.08;;
35418;SDS011;21525;41.240;16.500;2022-09-03T13:13:55;3.67;;;2.10;;
35418;SDS011;21525;41.240;16.500;2022-09-03T13:17:15;3.67;;;2.28;;
35418;SDS011;21525;41.240;16.500;2022-09-03T13:28:10;3.38;;;1.67;;
35418;SDS011;21525;41.240;16.500;2022-09-03T13:31:54;5.40;;;1.80;;
35418;SDS011;21525;41.240;16.500;2022-09-03T13:36:57;3.60;;;1.88;;
35418;SDS011;21525;41.240;16.500;2022-09-03T13:39:34;4.38;;;1.92;;
35418;SDS011;21525;41.240;16.500;2022-09-03T13:42:18;6.13;;;2.33;;
35418;SDS011;21525;41.240;16.500;2022-09-03T13:47:39;4.35;;;1.92;;
35418;SDS011;21525;41.240;16.500;2022-09-03T13:50:49;4.30;;;2.20;;
35418;SDS011;21525;41.240;16.500;2022-09-03T13:59:12;4.15;;;2.00;;
35418;SDS011;21525;41.240;16.500;2022-09-03T14:01:51;5.00;;;1.80;;
35418;SDS011;21525;41.240;16.500;2022-09-03T14:04:32;5.45;;;2.40;;
35418;SDS011;21525;41.240;16.500;2022-09-03T14:07:10;4.22;;;1.90;;
35418;SDS011;21525;41.240;16.500;2022-09-03T14:12:44;3.40;;;1.98;;
35418;SDS011;21525;41.240;16.500;2022-09-03T14:15:25;2.97;;;2.00;;
35418;SDS011;21525;41.240;16.500;2022-09-03T14:24:00;4.22;;;1.95;;
35418;SDS011;21525;41.240;16.500;2022-09-03T14:26:31;4.60;;;2.10;;
35418;SDS011;21525;41.240;16.500;2022-09-03T14:29:01;4.95;;;2.17;;
35418;SDS011;21525;41.240;16.500;2022-09-03T14:37:00;2.40;;;1.83;;
35418;SDS011;21525;41.240;16.500;2022-09-03T14:39:49;4.47;;;1.95;;
35418;SDS011;21525;41.240;16.500;2022-09-03T14:45:42;4.03;;;2.03;;
35418;SDS011;21525;41.240;16.500;2022-09-03T15:10:54;3.80;;;2.08;;
35418;SDS011;21525;41.240;16.500;2022-09-03T15:13:24;3.83;;;1.90;;
35418;SDS011;21525;41.240;16.500;2022-09-03T15:21:51;3.72;;;2.05;;
35418;SDS011;21525;41.240;16.500;2022-09-03T15:30:14;10.27;;;3.35;;
35418;SDS011;21525;41.240;16.500;2022-09-03T15:38:41;4.57;;;2.10;;
35418;SDS011;21525;41.240;16.500;2022-09-03T15:44:06;3.78;;;2.13;;
35418;SDS011;21525;41.240;16.500;2022-09-03T15:49:15;3.30;;;2.20;;
35418;SDS011;21525;41.240;16.500;2022-09-03T15:51:54;4.97;;;2.25;;
35418;SDS011;21525;41.240;16.500;2022-09-03T15:54:51;4.43;;;2.40;;
35418;SDS011;21525;41.240;16.500;2022-09-03T15:57:39;6.47;;;2.40;;
35418;SDS011;21525;41.240;16.500;2022-09-03T16:00:15;5.07;;;2.10;;
35418;SDS011;21525;41.240;16.500;2022-09-03T16:05:43;3.72;;;1.98;;
35418;SDS011;21525;41.240;16.500;2022-09-03T16:08:23;3.17;;;1.95;;
35418;SDS011;21525;41.240;16.500;2022-09-03T16:11:05;4.90;;;2.37;;
35418;SDS011;21525;41.240;16.500;2022-09-03T16:16:17;4.57;;;2.20;;
35418;SDS011;21525;41.240;16.500;2022-09-03T16:18:54;5.25;;;2.30;;
35418;SDS011;21525;41.240;16.500;2022-09-03T16:21:28;3.15;;;2.17;;
35418;SDS011;21525;41.240;16.500;2022-09-03T16:26:49;6.50;;;2.40;;
35418;SDS011;21525;41.240;16.500;2022-09-03T16:29:27;6.55;;;2.20;;
35418;SDS011;21525;41.240;16.500;2022-09-03T16:32:11;4.10;;;2.50;;
35418;SDS011;21525;41.240;16.500;2022-09-03T16:35:39;3.33;;;2.00;;
35418;SDS011;21525;41.240;16.500;2022-09-03T16:54:50;4.67;;;2.50;;
35418;SDS011;21525;41.240;16.500;2022-09-03T17:00:08;5.25;;;3.00;;
35418;SDS011;21525;41.240;16.500;2022-09-03T17:21:49;5.60;;;2.83;;
35418;SDS011;21525;41.240;16.500;2022-09-03T17:27:11;7.95;;;2.67;;
35418;SDS011;21525;41.240;16.500;2022-09-03T17:41:24;10.57;;;2.53;;
35418;SDS011;21525;41.240;16.500;2022-09-03T17:52:31;4.60;;;2.35;;
35418;SDS011;21525;41.240;16.500;2022-09-03T17:55:11;5.63;;;2.60;;
35418;SDS011;21525;41.240;16.500;2022-09-03T17:57:39;6.82;;;2.80;;
35418;SDS011;21525;41.240;16.500;2022-09-03T18:00:20;5.43;;;3.13;;
35418;SDS011;21525;41.240;16.500;2022-09-03T18:14:06;5.72;;;3.03;;
35418;SDS011;21525;41.240;16.500;2022-09-03T18:16:18;6.85;;;3.08;;
35418;SDS011;21525;41.240;16.500;2022-09-03T18:18:52;6.10;;;2.40;;
35418;SDS011;21525;41.240;16.500;2022-09-03T18:21:23;6.43;;;3.22;;
35418;SDS011;21525;41.240;16.500;2022-09-03T18:28:06;7.75;;;3.70;;
35418;SDS011;21525;41.240;16.500;2022-09-03T18:30:39;8.35;;;2.80;;
35418;SDS011;21525;41.240;16.500;2022-09-03T18:33:24;8.07;;;3.20;;
35418;SDS011;21525;41.240;16.500;2022-09-03T18:36:09;7.30;;;4.13;;
35418;SDS011;21525;41.240;16.500;2022-09-03T18:39:02;9.48;;;4.20;;
35418;SDS011;21525;41.240;16.500;2022-09-03T19:02:32;9.73;;;3.80;;
35418;SDS011;21525;41.240;16.500;2022-09-03T19:05:46;7.60;;;3.63;;
35418;SDS011;21525;41.240;16.500;2022-09-03T19:15:00;7.03;;;4.03;;
35418;SDS011;21525;41.240;16.500;2022-09-03T19:24:12;9.38;;;4.25;;
35418;SDS011;21525;41.240;16.500;2022-09-03T19:33:03;9.45;;;4.68;;
35418;SDS011;21525;41.240;16.500;2022-09-03T19:36:19;10.77;;;5.40;;
35418;SDS011;21525;41.240;16.500;2022-09-03T19:39:25;11.27;;;5.30;;
35418;SDS011;21525;41.240;16.500;2022-09-03T19:48:59;7.55;;;4.65;;
35418;SDS011;21525;41.240;16.500;2022-09-03T19:54:58;8.95;;;5.20;;
35418;SDS011;21525;41.240;16.500;2022-09-03T19:57:44;11.38;;;5.22;;
35418;SDS011;21525;41.240;16.500;2022-09-03T20:00:36;9.32;;;4.82;;
35418;SDS011;21525;41.240;16.500;2022-09-03T20:03:20;10.65;;;5.90;;
35418;SDS011;21525;41.240;16.500;2022-09-03T20:06:05;8.43;;;5.70;;
35418;SDS011;21525;41.240;16.500;2022-09-03T20:08:51;13.10;;;5.38;;
35418;SDS011;21525;41.240;16.500;2022-09-03T20:11:45;13.85;;;5.75;;
35418;SDS011;21525;41.240;16.500;2022-09-03T20:14:13;9.48;;;5.28;;
35418;SDS011;21525;41.240;16.500;2022-09-03T20:22:32;11.27;;;6.40;;
35418;SDS011;21525;41.240;16.500;2022-09-03T20:33:26;9.45;;;6.05;;
35418;SDS011;21525;41.240;16.500;2022-09-03T20:36:05;11.38;;;6.20;;
35418;SDS011;21525;41.240;16.500;2022-09-03T20:55:19;9.60;;;5.72;;
35418;SDS011;21525;41.240;16.500;2022-09-03T21:09:17;12.07;;;5.43;;
35418;SDS011;21525;41.240;16.500;2022-09-03T21:12:09;9.50;;;4.63;;
35418;SDS011;21525;41.240;16.500;2022-09-03T21:14:50;10.65;;;6.32;;
35418;SDS011;21525;41.240;16.500;2022-09-03T21:27:47;8.10;;;4.22;;
35418;SDS011;21525;41.240;16.500;2022-09-03T21:30:19;9.30;;;4.22;;
35418;SDS011;21525;41.240;16.500;2022-09-03T21:32:49;7.57;;;5.00;;
35418;SDS011;21525;41.240;16.500;2022-09-03T21:35:44;9.63;;;4.63;;
35418;SDS011;21525;41.240;16.500;2022-09-03T21:38:19;6.07;;;3.85;;
35418;SDS011;21525;41.240;16.500;2022-09-03T21:40:49;10.02;;;3.63;;
35418;SDS011;21525;41.240;16.500;2022-09-03T21:44:07;5.90;;;3.75;;
35418;SDS011;21525;41.240;16.500;2022-09-03T21:46:20;5.28;;;3.20;;
35418;SDS011;21525;41.240;16.500;2022-09-03T21:49:10;7.40;;;3.55;;
35418;SDS011;21525;41.240;16.500;2022-09-03T21:51:46;7.75;;;3.90;;
35418;SDS011;21525;41.240;16.500;2022-09-03T21:54:32;7.03;;;3.90;;
35418;SDS011;21525;41.240;16.500;2022-09-03T22:04:46;5.10;;;3.40;;
35418;SDS011;21525;41.240;16.500;2022-09-03T22:15:46;7.40;;;3.80;;
35418;SDS011;21525;41.240;16.500;2022-09-03T22:18:27;5.70;;;3.42;;
35418;SDS011;21525;41.240;16.500;2022-09-03T22:40:47;8.40;;;3.65;;
35418;SDS011;21525;41.240;16.500;2022-09-03T22:49:05;6.18;;;3.10;;
35418;SDS011;21525;41.240;16.500;2022-09-03T22:52:07;7.95;;;3.47;;
35418;SDS011;21525;41.240;16.500;2022-09-03T22:57:19;4.00;;;2.70;;
35418;SDS011;21525;41.240;16.500;2022-09-03T23:00:03;6.38;;;2.78;;
35418;SDS011;21525;41.240;16.500;2022-09-03T23:02:33;5.82;;;3.40;;
35418;SDS011;21525;41.240;16.500;2022-09-03T23:07:41;5.43;;;3.05;;
35418;SDS011;21525;41.240;16.500;2022-09-03T23:13:59;10.82;;;3.58;;
35418;SDS011;21525;41.240;16.500;2022-09-03T23:17:04;9.77;;;3.60;;
35418;SDS011;21525;41.240;16.500;2022-09-03T23:19:34;5.80;;;3.80;;
35418;SDS011;21525;41.240;16.500;2022-09-03T23:22:09;5.90;;;3.33;;
35418;SDS011;21525;41.240;16.500;2022-09-03T23:24:46;7.93;;;3.80;;
35418;SDS011;21525;41.240;16.500;2022-09-03T23:27:20;7.70;;;3.63;;
35418;SDS011;21525;41.240;16.500;2022-09-03T23:29:54;5.00;;;2.95;;